This is the latest recevied weather packets stored in our database for station/object KE0FIN. If no packets are shown the sender has not sent any weather packets the latest 10 day(s).
| Time | Temp. | Humidity | Pressure | Rain* | Wind** | Luminosity | Snow |
|---|---|---|---|---|---|---|---|
| 1777602512 | 11.11° C | 92% | 1069.5 hPa | 0 mm | - | 0 W/m² | - |
| 1777602209 | 11.11° C | 91% | 1069.5 hPa | 0 mm | - | 0 W/m² | - |
| 1777601904 | 11.67° C | 91% | 1069.3 hPa | 0 mm | - | 0 W/m² | - |
| 1777601599 | 11.67° C | 91% | 1069.3 hPa | 0 mm | - | 0 W/m² | - |
| 1777601295 | 11.67° C | 90% | 1069.3 hPa | 0 mm | - | 0 W/m² | - |
| 1777600992 | 11.67° C | 89% | 1069.3 hPa | 0 mm | - | 0 W/m² | - |
| 1777600689 | 12.22° C | 88% | 1069 hPa | 0 mm | - | 0 W/m² | - |
| 1777587027 | 17.78° C | 53% | 1067.9 hPa | 0 mm | - | 25 W/m² | - |
| 1777586119 | 18.89° C | 51% | 1068.1 hPa | 0 mm | - | 268 W/m² | - |
| 1777584601 | 17.22° C | 54% | 1068.4 hPa | 0 mm | - | 205 W/m² | - |
| 1777584298 | 17.78° C | 54% | 1068.6 hPa | 0 mm | - | 213 W/m² | - |
| 1777583992 | 17.78° C | 56% | 1068.6 hPa | 0 mm | - | 224 W/m² | - |
| 1777583085 | 16.67° C | 58% | 1068.8 hPa | 0 mm | - | 199 W/m² | - |
| 1777582478 | 16.11° C | 59% | 1068.8 hPa | 0 mm | - | 104 W/m² | - |
| 1777581872 | 16.11° C | 58% | 1069.3 hPa | 0 mm | - | 96 W/m² | - |
| 1777581262 | 16.67° C | 58% | 1069.2 hPa | 0 mm | - | 99 W/m² | - |
| 1777580657 | 16.11° C | 58% | 1069.3 hPa | 0 mm | - | 109 W/m² | - |
| 1777580352 | 16.67° C | 57% | 1069.4 hPa | 0 mm | - | 113 W/m² | - |
| 1777580049 | 16.67° C | 56% | 1069.4 hPa | 0 mm | - | 121 W/m² | - |
| 1777579746 | 16.67° C | 57% | 1069.4 hPa | 0 mm | - | 124 W/m² | - |
| 1777579443 | 16.67° C | 57% | 1069.2 hPa | 0 mm | - | 122 W/m² | - |
| 1777579139 | 16.67° C | 56% | 1069.3 hPa | 0 mm | - | 123 W/m² | - |
| 1777578839 | 16.67° C | 56% | 1069.3 hPa | 0 mm | - | 131 W/m² | - |
| 1777578534 | 16.67° C | 56% | 1069.5 hPa | 0 mm | - | 131 W/m² | - |
| 1777577312 | 17.22° C | 53% | 1069.7 hPa | 0 mm | - | 157 W/m² | - |
* Rain latest hour (hover to see other rain measurements)
** Current wind speed in m/s (hover to see current wind gust speed)